Portada
METAR-TAF:

METAR-TAF

Aeropuertos :

Dallas / Fort Worth, Texas, Estados Unidos

Aeropuerto Internacional de Dallas-Fort Worth

latitud: 32-53-49N, longitud: 097-01-19W, altitud: 183 m

Observación

El informe se hizo hace 43 minutos, a las 14:53 UTC
Viento 8 kt del sur-suroeste
Temperatura 32°C
Humedad 52%
Presión 1016 hPa
Visibilidad: 16.1 km
Escasas nubes a una altura de 5000 ft
Escasas nubes a una altura de 21000 ft
Escasas nubes a una altura de 30000 ft

METAR: KDFW 201453Z 20008KT 10SM FEW050 FEW210 FEW300 32/21 A3000 RMK AO2 SLP149 CB DSNT NW STNRY T03170206 51015

Hora: 10:36 (15:36 UTC)

Pronóstico

El informe se hizo hace 35 minutos, a las 15:01 UTC
Pronóstico válido del 20 a las 15 UTC al 21 a las 18 UTC
Viento 8 kt del sur
Visibilidad: 10 km
Nubes dispersas a una altura de 8000 ft

TAF: KDFW 201501Z 2015/2118 18008KT P6SM SCT080

Observaciones y pronósticos meteorológicos de más de 4000 aeropuertos (mensajes METAR y TAF).

Los puntos amarillos y rojos representan las estaciones disponibles.

Ponga el ratón en el punto deseado para ver el nombre de la estación.

Haga clic para ver las observaciones y los pronósticos meteorológicos.

Para cambiar el mapa : haga clic en los botones verdes con una cruz de color negro para hacer un zoom, en el botón verde con un guión para alejar o en las flechas verdes para mapas adyacentes.


METAR-TAF: